Time;durP1;ratioP1;P1;durP2;ratioP2;P2;SDS_P1;SDS_P2;PMS_P1;PMS_P2;Temp;Humidity;BMP_temperature;BMP_pressure;BME280_temperature;BME280_humidity;BME280_pressure;Samples;Min_cycle;Max_cycle;Signal;HPM_P1;HPM_P2
2022/08/12 00:43:28;;;;;;;0.20;0.20;;;;;;;17.54;100.00;101933.75;10449775;28;20095;-77
2022/08/12 00:48:30;;;;;;;0.55;0.40;;;;;;;17.35;100.00;101927.44;10450283;28;20072;-77
2022/08/12 00:53:33;;;;;;;0.08;0.08;;;;;;;16.96;100.00;101933.78;10449381;28;20052;-76
2022/08/12 00:58:46;;;;;;;0.08;0.08;;;;;;;17.01;100.00;101933.84;10448481;28;20056;-78
2022/08/12 01:14:41;;;;;;;0.32;0.32;;;;;;;16.59;100.00;101943.53;10425955;28;20508;-78
2022/08/12 01:19:43;;;;;;;0.65;0.28;;;;;;;16.51;100.00;101946.03;10425517;28;20044;-79
2022/08/12 01:25:17;;;;;;;0.30;0.22;;;;;;;16.65;100.00;101936.72;10446960;28;20041;-76
2022/08/12 01:30:23;;;;;;;0.40;0.10;;;;;;;16.27;100.00;101941.25;10423673;28;20042;-77
2022/08/12 01:35:33;;;;;;;0.20;0.20;;;;;;;16.04;100.00;101949.47;10429934;28;20564;-77
2022/08/12 01:40:44;;;;;;;1.65;0.30;;;;;;;16.24;100.00;101951.56;10448474;28;20068;-79
2022/08/12 01:45:50;;;;;;;0.35;0.20;;;;;;;16.05;100.00;101953.81;10449887;28;20064;-78
2022/08/12 01:51:17;;;;;;;0.20;0.08;;;;;;;16.18;100.00;101950.63;10448803;28;20037;-78
2022/08/12 01:57:01;;;;;;;0.05;0.05;;;;;;;15.85;100.00;101951.69;10452841;28;20051;-77
2022/08/12 02:02:08;;;;;;;0.47;0.40;;;;;;;15.71;100.00;101953.94;10455411;28;20069;-77
2022/08/12 02:12:52;;;;;;;0.13;0.13;;;;;;;15.63;100.00;101954.63;10456592;28;20068;-77
2022/08/12 02:18:11;;;;;;;0.63;0.38;;;;;;;15.57;100.00;101949.31;10454764;28;20507;-77
2022/08/12 02:23:14;;;;;;;0.63;0.50;;;;;;;15.42;100.00;101953.31;10456636;28;20048;-79
2022/08/12 02:28:20;;;;;;;0.40;0.20;;;;;;;15.16;100.00;101953.56;10454193;28;20111;-76
2022/08/12 02:33:22;;;;;;;0.20;0.13;;;;;;;15.14;100.00;101955.28;10454583;28;20129;-78
2022/08/12 02:38:26;;;;;;;1.00;0.35;;;;;;;15.05;100.00;101955.06;10448545;28;20496;-76
2022/08/12 02:43:48;;;;;;;1.75;0.15;;;;;;;15.06;100.00;101962.00;10455868;28;20071;-77
2022/08/12 02:48:56;;;;;;;0.10;0.10;;;;;;;15.01;100.00;101954.09;10454793;28;20473;-77
2022/08/12 02:54:04;;;;;;;0.00;0.00;;;;;;;15.02;100.00;101961.06;10453250;28;20052;-76
2022/08/12 02:59:10;;;;;;;0.20;0.20;;;;;;;14.89;100.00;101965.06;10454951;28;20040;-76
2022/08/12 03:04:23;;;;;;;0.20;0.20;;;;;;;14.80;100.00;101959.63;10454359;28;20041;-76
2022/08/12 03:09:31;;;;;;;0.00;0.00;;;;;;;14.67;100.00;101966.22;10436512;28;20041;-76
2022/08/12 03:14:54;;;;;;;0.85;0.40;;;;;;;14.40;100.00;101963.75;10458540;28;20517;-73
2022/08/12 03:19:56;;;;;;;0.15;0.15;;;;;;;14.49;100.00;101963.97;10460287;28;20068;-73
2022/08/12 03:25:15;;;;;;;0.50;0.25;;;;;;;14.52;100.00;101958.88;10443404;28;20048;-73
2022/08/12 03:30:18;;;;;;;0.10;0.10;;;;;;;14.41;100.00;101958.59;10458513;28;20040;-73
2022/08/12 03:35:34;;;;;;;0.00;0.00;;;;;;;14.21;100.00;101996.06;10457975;28;20049;-73
2022/08/12 04:02:33;;;;;;;0.50;0.45;;;;;;;13.89;100.00;101991.69;10457756;28;20059;-73
2022/08/12 04:07:35;;;;;;;0.98;0.50;;;;;;;13.88;100.00;102005.50;10457308;28;20480;-73
2022/08/12 04:13:18;;;;;;;0.75;0.20;;;;;;;13.76;100.00;101995.66;10443070;28;20060;-73
2022/08/12 04:18:21;;;;;;;0.45;0.30;;;;;;;13.83;100.00;102004.47;10455998;28;20051;-73
2022/08/12 04:23:24;;;;;;;0.30;0.20;;;;;;;13.88;100.00;102000.31;10457716;28;20055;-73
2022/08/12 04:28:27;;;;;;;0.75;0.55;;;;;;;13.82;100.00;101992.34;10465969;28;20044;-73
2022/08/12 04:33:31;;;;;;;0.20;0.20;;;;;;;13.98;100.00;101990.19;10469782;28;20391;-73
2022/08/12 04:38:33;;;;;;;0.35;0.35;;;;;;;14.21;100.00;102015.06;10491489;28;20049;-74
2022/08/12 04:43:37;;;;;;;0.65;0.40;;;;;;;14.36;100.00;102014.66;10455672;28;20049;-73
2022/08/12 04:48:59;;;;;;;0.22;0.17;;;;;;;14.73;100.00;101994.03;10457069;28;20381;-73
2022/08/12 04:54:03;;;;;;;0.60;0.25;;;;;;;15.13;100.00;101982.06;10439798;28;20053;-73
2022/08/12 04:59:06;;;;;;;0.90;0.68;;;;;;;15.25;100.00;101986.69;10455368;28;20072;-73
2022/08/12 05:04:09;;;;;;;0.90;0.45;;;;;;;15.21;100.00;101997.81;10455297;28;20492;-73
2022/08/12 05:09:11;;;;;;;0.85;0.65;;;;;;;15.45;100.00;101992.31;10479189;28;20048;-73
2022/08/12 05:14:14;;;;;;;0.47;0.32;;;;;;;15.71;100.00;101995.50;10460360;28;20399;-73
2022/08/12 05:19:16;;;;;;;1.02;0.70;;;;;;;15.83;100.00;101989.75;10497200;28;20415;-73
2022/08/12 05:24:23;;;;;;;0.40;0.35;;;;;;;16.08;100.00;101985.06;10496511;28;20114;-73
2022/08/12 05:29:28;;;;;;;2.45;0.73;;;;;;;16.23;100.00;101984.50;10465105;28;20532;-73
2022/08/12 05:34:50;;;;;;;1.00;0.32;;;;;;;16.43;100.00;101979.69;10471424;28;20036;-73
2022/08/12 05:54:03;;;;;;;0.95;0.82;;;;;;;17.76;100.00;101955.75;10349205;28;20030;-74
2022/08/12 05:59:06;;;;;;;0.68;0.57;;;;;;;17.85;100.00;101957.63;10469427;28;20058;-74
2022/08/12 06:04:08;;;;;;;1.15;0.68;;;;;;;18.22;100.00;101945.03;10464550;28;20124;-74
2022/08/12 06:09:10;;;;;;;1.00;0.77;;;;;;;18.53;100.00;101939.25;10464761;28;20395;-72
2022/08/12 06:14:12;;;;;;;0.95;0.50;;;;;;;18.74;100.00;101935.06;10482181;28;20111;-74
2022/08/12 06:19:17;;;;;;;0.57;0.32;;;;;;;18.84;100.00;101939.53;10461982;28;20029;-73
2022/08/12 06:24:23;;;;;;;0.70;0.70;;;;;;;19.11;100.00;101935.38;10457297;28;20423;-72
2022/08/12 06:29:52;;;;;;;1.98;0.60;;;;;;;19.59;100.00;101923.50;10466306;28;20049;-72
2022/08/12 06:35:16;;;;;;;1.75;0.90;;;;;;;19.76;100.00;101920.09;10457721;28;20124;-73
2022/08/12 06:45:51;;;;;;;2.88;0.98;;;;;;;20.56;100.00;101909.81;10459748;28;20503;-72
2022/08/12 06:50:57;;;;;;;0.57;0.40;;;;;;;20.59;100.00;101907.16;10458679;28;20048;-72
2022/08/12 06:56:00;;;;;;;0.77;0.60;;;;;;;21.04;100.00;101903.66;10458730;28;20049;-72
2022/08/12 07:01:01;;;;;;;0.75;0.38;;;;;;;21.30;100.00;101913.25;10459772;28;20040;-72
2022/08/12 07:06:08;;;;;;;0.50;0.35;;;;;;;21.96;100.00;101906.88;10458051;28;20059;-72
2022/08/12 07:11:12;;;;;;;0.47;0.40;;;;;;;22.43;99.24;101910.97;10441070;28;20037;-72
2022/08/12 07:16:17;;;;;;;1.65;1.10;;;;;;;23.77;98.77;101911.38;10458341;28;20067;-72
2022/08/12 07:21:19;;;;;;;2.03;1.02;;;;;;;23.77;86.64;101911.38;10440852;28;20091;-72
2022/08/12 07:26:20;;;;;;;1.33;0.98;;;;;;;24.26;85.76;101906.31;10462015;28;20071;-72
2022/08/12 07:31:26;;;;;;;0.70;0.50;;;;;;;24.94;85.22;101913.09;10457906;28;20035;-72
2022/08/12 07:36:29;;;;;;;1.95;1.20;;;;;;;25.22;76.08;101912.56;10457635;28;20052;-74
2022/08/12 07:41:31;;;;;;;0.75;0.45;;;;;;;25.92;75.33;101914.66;10456812;28;20037;-74
2022/08/12 07:46:42;;;;;;;0.45;0.35;;;;;;;25.52;68.63;101928.72;10439581;28;20049;-74
2022/08/12 07:51:44;;;;;;;0.75;0.52;;;;;;;26.17;67.28;101919.41;10472554;28;20076;-74
2022/08/12 07:56:45;;;;;;;1.00;0.85;;;;;;;26.65;68.79;101917.38;10455471;28;20056;-74
2022/08/12 08:01:48;;;;;;;0.50;0.50;;;;;;;27.04;68.50;101917.25;10438637;28;20095;-73
2022/08/12 08:06:50;;;;;;;0.32;0.32;;;;;;;27.44;62.42;101915.28;10455348;28;20049;-74
2022/08/12 08:17:21;;;;;;;0.22;0.20;;;;;;;28.21;56.46;101917.38;10455560;28;20068;-73
2022/08/12 08:22:24;;;;;;;0.47;0.30;;;;;;;28.77;63.75;101906.72;10438227;28;20052;-73
2022/08/12 08:27:44;;;;;;;0.40;0.30;;;;;;;28.09;51.49;101908.06;10454487;28;20076;-73
2022/08/12 08:32:46;;;;;;;0.93;0.52;;;;;;;29.05;49.28;101905.72;10453889;28;20044;-73
2022/08/12 08:38:05;;;;;;;;;;;;;;;28.68;47.36;101906.97;10454352;28;20128;-74
2022/08/12 08:43:06;;;;;;;1.08;0.50;;;;;;;29.57;45.88;101913.53;10437808;28;20287;-73
2022/08/12 08:48:08;;;;;;;1.40;0.47;;;;;;;29.97;46.13;101915.59;10437257;28;20427;-73
2022/08/12 08:53:11;;;;;;;1.38;0.70;;;;;;;29.91;39.29;101922.00;10454704;28;20083;-74
2022/08/12 08:58:13;;;;;;;0.38;0.10;;;;;;;30.16;40.99;101918.38;10453296;28;20048;-74
2022/08/12 09:03:15;;;;;;;0.10;0.10;;;;;;;29.91;39.16;101917.56;10452400;28;20045;-73
2022/08/12 09:08:37;;;;;;;0.17;0.17;;;;;;;30.96;44.26;101906.16;10461991;28;20118;-74
2022/08/12 09:14:08;;;;;;;2.25;0.70;;;;;;;30.73;41.02;101899.16;10454164;28;20051;-74
2022/08/12 09:19:19;;;;;;;0.45;0.30;;;;;;;30.59;34.34;101899.78;10446496;28;20048;-74
2022/08/12 09:24:29;;;;;;;1.10;0.52;;;;;;;31.32;36.39;101892.97;10454085;28;20115;-74
2022/08/12 09:29:33;;;;;;;0.50;0.40;;;;;;;31.07;32.93;101898.53;10450571;28;20135;-75
2022/08/12 09:34:55;;;;;;;0.47;0.45;;;;;;;30.94;31.42;101898.22;10453486;28;20041;-74
2022/08/12 09:39:58;;;;;;;0.65;0.60;;;;;;;31.82;31.78;101895.16;10453552;28;20037;-74
2022/08/12 09:45:22;;;;;;;0.63;0.50;;;;;;;31.58;33.73;101892.69;10436880;28;20049;-74
2022/08/12 09:50:45;;;;;;;1.17;0.40;;;;;;;32.03;30.54;101883.44;10432525;28;20056;-74
2022/08/12 09:55:56;;;;;;;0.30;0.30;;;;;;;31.57;33.22;101891.00;10451239;28;20044;-74
2022/08/12 10:01:07;;;;;;;0.20;0.20;;;;;;;31.28;29.31;101880.75;10435986;28;20087;-73
2022/08/12 10:06:16;;;;;;;0.22;0.22;;;;;;;32.35;30.61;101866.81;10447936;28;20538;-74
2022/08/12 10:17:13;;;;;;;0.10;0.10;;;;;;;31.99;26.51;101859.69;10453472;28;20074;-73
2022/08/12 10:22:14;;;;;;;0.43;0.15;;;;;;;32.26;28.68;101855.66;10473687;28;20048;-74
2022/08/12 10:33:06;;;;;;;1.20;0.30;;;;;;;32.27;26.37;101838.75;10457468;28;20053;-74
2022/08/12 10:38:19;;;;;;;0.13;0.10;;;;;;;31.53;25.59;101837.00;10463587;28;20056;-74
2022/08/12 10:43:41;;;;;;;0.40;0.38;;;;;;;31.55;27.24;101835.13;10462349;28;20066;-74
2022/08/12 10:48:57;;;;;;;0.47;0.40;;;;;;;32.44;27.60;101807.66;10460340;28;20131;-74
2022/08/12 10:54:20;;;;;;;0.38;0.38;;;;;;;32.83;27.33;101810.97;10458674;28;20431;-75
2022/08/12 10:59:30;;;;;;;0.57;0.57;;;;;;;32.36;28.26;101804.50;10455335;28;20051;-74
2022/08/12 11:04:58;;;;;;;0.20;0.20;;;;;;;32.27;25.99;101796.09;10456159;28;20051;-75
2022/08/12 11:10:20;;;;;;;;;;;;;;;32.49;26.17;101784.28;10449539;28;20047;-74
2022/08/12 11:15:27;;;;;;;0.75;0.73;;;;;;;32.60;26.58;101786.38;10451045;28;20074;-74
2022/08/12 11:20:49;;;;;;;3.08;0.35;;;;;;;32.97;26.22;101786.19;10441906;28;20087;-74
2022/08/12 11:25:52;;;;;;;1.42;0.90;;;;;;;32.46;25.40;101779.09;10454731;28;20041;-74
2022/08/12 11:30:59;;;;;;;0.70;0.50;;;;;;;32.75;24.63;101771.31;10453625;28;20132;-74
2022/08/12 11:36:07;;;;;;;0.10;0.10;;;;;;;33.00;25.28;101773.53;10455517;28;20045;-74
2022/08/12 11:41:15;;;;;;;0.30;0.22;;;;;;;32.92;26.14;101767.75;10445274;28;20049;-75
2022/08/12 11:46:28;;;;;;;0.32;0.30;;;;;;;32.46;25.66;101767.59;10453501;28;20488;-75
2022/08/12 11:51:31;;;;;;;4.75;0.43;;;;;;;32.19;25.41;101760.94;10454792;28;20037;-75
2022/08/12 11:57:05;;;;;;;0.20;0.20;;;;;;;32.71;26.30;101746.63;10455134;28;20132;-75
2022/08/12 12:02:27;;;;;;;1.00;0.90;;;;;;;32.99;25.60;101749.59;10454951;28;20037;-75
2022/08/12 12:07:29;;;;;;;0.75;0.47;;;;;;;32.92;25.08;101743.75;10441023;28;20048;-74
2022/08/12 12:12:51;;;;;;;0.57;0.43;;;;;;;33.05;26.21;101743.91;10427564;28;20081;-75
2022/08/12 12:17:54;;;;;;;0.10;0.10;;;;;;;32.14;24.79;101752.28;10446884;28;20052;-75
2022/08/12 12:22:57;;;;;;;0.30;0.25;;;;;;;32.16;23.72;101750.41;10449252;28;20037;-74
2022/08/12 12:27:59;;;;;;;0.45;0.40;;;;;;;32.14;25.13;101746.97;10452567;28;20049;-76
2022/08/12 12:33:28;;;;;;;0.60;0.60;;;;;;;32.32;24.12;101736.31;10439002;28;20500;-75
2022/08/12 12:38:50;;;;;;;0.50;0.30;;;;;;;32.79;25.04;101732.91;10448278;28;20492;-75
2022/08/12 12:43:52;;;;;;;0.85;0.50;;;;;;;32.78;24.38;101725.84;10450930;28;20056;-74
2022/08/12 12:49:05;;;;;;;2.17;1.30;;;;;;;32.42;24.88;101725.06;10451811;28;20140;-75
2022/08/12 12:54:11;;;;;;;0.57;0.37;;;;;;;32.17;25.01;101725.47;10452513;28;20215;-75
2022/08/12 12:59:17;;;;;;;0.55;0.38;;;;;;;32.52;24.33;101719.25;10451861;28;20065;-75
2022/08/12 13:04:39;;;;;;;0.28;0.20;;;;;;;32.50;24.45;101706.00;10453099;28;20455;-75
2022/08/12 13:09:41;;;;;;;0.30;0.20;;;;;;;32.18;23.96;101716.56;10451012;28;20045;-76
2022/08/12 13:14:47;;;;;;;0.63;0.35;;;;;;;31.93;24.28;101706.31;10448621;28;20053;-75
2022/08/12 13:19:53;;;;;;;0.20;0.10;;;;;;;32.31;25.01;101699.91;10436164;28;20045;-75
2022/08/12 13:24:58;;;;;;;0.32;0.20;;;;;;;32.62;25.42;101698.25;10451347;28;20140;-75
2022/08/12 13:30:02;;;;;;;0.15;0.10;;;;;;;32.42;25.06;101697.56;10452644;28;20542;-75
2022/08/12 13:35:08;;;;;;;0.85;0.55;;;;;;;31.88;24.52;101687.91;10492076;28;20045;-76
2022/08/12 13:40:32;;;;;;;0.30;0.20;;;;;;;32.17;24.51;101687.31;10485717;28;20067;-74
2022/08/12 13:45:34;;;;;;;0.40;0.20;;;;;;;32.16;24.31;101686.44;10487710;28;20044;-74
2022/08/12 13:50:39;;;;;;;0.93;0.22;;;;;;;31.91;25.82;101687.72;10449735;28;20040;-74
2022/08/12 13:55:44;;;;;;;0.93;0.43;;;;;;;32.01;24.85;101676.59;10458620;28;20125;-74
2022/08/12 14:00:52;;;;;;;0.10;0.03;;;;;;;32.40;25.87;101678.94;10466814;28;20506;-75
2022/08/12 14:05:58;;;;;;;0.10;0.10;;;;;;;32.35;24.92;101669.50;10455621;28;20047;-74
2022/08/12 14:11:00;;;;;;;0.13;0.13;;;;;;;32.10;25.25;101665.44;10447424;28;20041;-75
2022/08/12 14:16:03;;;;;;;0.73;0.40;;;;;;;32.10;25.01;101665.44;10441182;28;20385;-74
2022/08/12 14:21:11;;;;;;;0.38;0.30;;;;;;;31.90;25.82;101664.72;10447331;28;20090;-74
2022/08/12 14:26:23;;;;;;;0.57;0.20;;;;;;;31.94;24.80;101660.94;10461612;28;20303;-74
2022/08/12 14:31:25;;;;;;;0.30;0.03;;;;;;;31.77;24.00;101647.63;10455049;28;20044;-73
2022/08/12 14:36:32;;;;;;;0.95;0.20;;;;;;;32.22;25.47;101651.47;10468305;28;20040;-74
2022/08/12 14:41:36;;;;;;;0.20;0.20;;;;;;;31.62;24.10;101634.13;10453439;28;20040;-76
2022/08/12 14:46:56;;;;;;;0.17;0.10;;;;;;;31.72;24.50;101639.03;10452020;28;20124;-74
2022/08/12 14:51:59;;;;;;;0.10;0.10;;;;;;;31.91;24.02;101642.44;10448101;28;20154;-75
2022/08/12 14:57:22;;;;;;;0.10;0.10;;;;;;;31.66;23.50;101636.69;10468143;28;20033;-75
2022/08/12 15:02:36;;;;;;;0.40;0.17;;;;;;;31.97;26.16;101633.25;10450581;28;20051;-75
2022/08/12 15:07:38;;;;;;;0.20;0.20;;;;;;;31.96;24.67;101637.75;10457222;28;20047;-74
2022/08/12 15:12:54;;;;;;;0.10;0.10;;;;;;;31.90;23.95;101632.75;10469073;28;20049;-74
2022/08/12 15:17:59;;;;;;;0.28;0.28;;;;;;;31.95;24.18;101625.34;10456823;28;20037;-74
2022/08/12 15:23:09;;;;;;;0.10;0.10;;;;;;;31.30;24.32;101627.78;10454670;28;20037;-75
2022/08/12 15:28:25;;;;;;;0.10;0.10;;;;;;;31.33;23.94;101627.66;10454846;28;20037;-74
2022/08/12 15:33:28;;;;;;;0.10;0.10;;;;;;;31.48;24.08;101623.34;10457817;28;20433;-74
2022/08/12 15:38:46;;;;;;;0.28;0.28;;;;;;;31.38;24.42;101608.78;10450996;28;20073;-74
2022/08/12 15:43:49;;;;;;;0.65;0.40;;;;;;;31.36;24.03;101610.66;10453223;28;20049;-74
2022/08/12 15:49:13;;;;;;;0.52;0.22;;;;;;;31.33;24.56;101607.19;10454040;28;20043;-75
2022/08/12 15:54:19;;;;;;;0.60;0.40;;;;;;;31.32;23.50;101607.28;10453920;28;20044;-75
2022/08/12 15:59:37;;;;;;;0.25;0.25;;;;;;;31.31;24.77;101609.06;10453807;28;20118;-75
2022/08/12 16:05:00;;;;;;;0.55;0.30;;;;;;;31.15;24.11;101601.00;10452918;28;20045;-78
2022/08/12 16:10:02;;;;;;;0.10;0.10;;;;;;;31.17;24.25;101601.81;10452755;28;20040;-76
2022/08/12 16:15:19;;;;;;;0.60;0.40;;;;;;;31.08;24.30;101607.53;10454224;28;20063;-77
2022/08/12 16:20:25;;;;;;;0.80;0.80;;;;;;;31.05;24.78;101596.19;10451877;28;20102;-75
2022/08/12 16:25:34;;;;;;;0.20;0.20;;;;;;;31.12;24.99;101589.66;10467856;28;20135;-74
2022/08/12 16:30:55;;;;;;;0.20;0.13;;;;;;;31.10;25.58;101584.44;10452102;28;20048;-73
2022/08/12 16:35:57;;;;;;;0.32;0.28;;;;;;;31.07;26.36;101581.03;10452678;28;20041;-74
2022/08/12 16:41:00;;;;;;;0.10;0.10;;;;;;;31.18;28.36;101576.03;10450473;28;20037;-74
2022/08/12 16:46:06;;;;;;;0.20;0.20;;;;;;;30.86;26.07;101559.88;10438152;28;20041;-74
2022/08/12 16:51:32;;;;;;;1.08;0.38;;;;;;;30.90;27.31;101561.44;10450923;28;20053;-76
2022/08/12 16:56:46;;;;;;;0.75;0.57;;;;;;;30.83;26.57;101560.88;10457424;28;20051;-74
2022/08/12 17:01:57;;;;;;;0.05;0.05;;;;;;;30.66;26.47;101558.19;10463048;28;20051;-74
2022/08/12 17:07:01;;;;;;;0.10;0.10;;;;;;;30.68;27.86;101559.84;10460871;28;20051;-73
2022/08/12 17:12:04;;;;;;;0.52;0.20;;;;;;;30.54;27.48;101551.69;10428558;28;20519;-73
2022/08/12 17:17:06;;;;;;;0.13;0.13;;;;;;;30.55;28.48;101561.38;10439403;28;20068;-73
2022/08/12 17:22:29;;;;;;;1.92;1.17;;;;;;;30.34;26.60;101565.88;10466141;28;20076;-76
2022/08/12 17:27:31;;;;;;;0.08;0.08;;;;;;;30.21;27.50;101557.63;10450818;28;20454;-75
2022/08/12 17:32:38;;;;;;;0.75;0.38;;;;;;;30.21;27.52;101560.28;10459603;28;20051;-74
2022/08/12 17:37:41;;;;;;;0.30;0.30;;;;;;;30.02;27.46;101558.47;10464162;28;20048;-74
2022/08/12 17:42:45;;;;;;;0.00;0.00;;;;;;;29.81;26.86;101562.09;10466215;28;20040;-74
2022/08/12 17:47:50;;;;;;;1.00;0.55;;;;;;;29.83;26.96;101560.19;10485635;28;20045;-74
2022/08/12 17:53:06;;;;;;;0.10;0.10;;;;;;;29.68;26.75;101559.09;10470480;28;20049;-74
2022/08/12 17:58:12;;;;;;;0.90;0.40;;;;;;;29.52;27.29;101564.25;10462866;28;20048;-74
2022/08/12 18:03:17;;;;;;;0.28;0.20;;;;;;;29.36;26.46;101570.22;10458095;28;20385;-74
2022/08/12 18:08:42;;;;;;;0.05;0.00;;;;;;;29.11;27.92;101571.22;10444895;28;20056;-74
2022/08/12 18:13:55;;;;;;;0.22;0.20;;;;;;;28.96;28.87;101569.19;10460140;28;20384;-74
2022/08/12 18:19:01;;;;;;;0.22;0.20;;;;;;;28.60;30.68;101564.41;10458627;28;20092;-74
2022/08/12 18:24:03;;;;;;;0.20;0.20;;;;;;;27.70;37.77;101584.47;10442523;28;20488;-74
2022/08/12 18:29:23;;;;;;;0.10;0.10;;;;;;;26.96;42.77;101586.94;10458971;28;20542;-75
2022/08/12 18:34:44;;;;;;;0.40;0.38;;;;;;;26.22;46.72;101590.03;10457820;28;20045;-74
2022/08/12 18:45:21;;;;;;;0.10;0.10;;;;;;;25.42;47.56;101592.19;10460988;28;20472;-74
2022/08/12 18:50:23;;;;;;;0.00;0.00;;;;;;;24.93;56.86;101594.22;10467010;28;20037;-74
2022/08/12 18:55:25;;;;;;;0.13;0.13;;;;;;;24.65;51.57;101606.19;10459403;28;20095;-75
2022/08/12 19:00:39;;;;;;;0.00;0.00;;;;;;;24.37;48.95;101612.06;10456025;28;20504;-75
2022/08/12 19:05:44;;;;;;;0.30;0.10;;;;;;;23.92;50.57;101614.69;10459021;28;20408;-75
2022/08/12 19:16:20;;;;;;;0.00;0.00;;;;;;;22.88;64.38;101612.84;10459012;28;20039;-75
2022/08/12 19:21:23;;;;;;;0.00;0.00;;;;;;;22.54;67.30;101611.53;10458807;28;20129;-75
2022/08/12 19:26:26;;;;;;;0.10;0.10;;;;;;;22.21;74.34;101618.03;10462232;28;20041;-75
2022/08/12 19:31:47;;;;;;;0.28;0.25;;;;;;;21.82;82.59;101619.28;10457772;28;20045;-76
2022/08/12 19:37:03;;;;;;;0.00;0.00;;;;;;;22.12;63.40;101617.25;10458491;28;20128;-75
2022/08/12 19:42:08;;;;;;;0.13;0.10;;;;;;;21.87;76.58;101627.97;10457173;28;20095;-77
2022/08/12 19:47:21;;;;;;;;;;;;;;;22.14;63.90;101635.59;10457614;28;20055;-77
2022/08/12 19:52:32;;;;;;;0.10;0.10;;;;;;;21.76;69.31;101635.09;10455689;28;20390;-76
2022/08/12 19:57:34;;;;;;;0.20;0.13;;;;;;;21.50;63.66;101646.63;10457726;28;20048;-76
2022/08/12 20:02:43;;;;;;;0.75;0.40;;;;;;;21.04;74.06;101639.09;10456359;28;20120;-76
2022/08/12 20:07:49;;;;;;;0.00;0.00;;;;;;;20.60;80.01;101649.75;10456386;28;20060;-76
2022/08/12 20:13:01;;;;;;;0.25;0.20;;;;;;;20.89;73.07;101648.75;10457201;28;20044;-76
2022/08/12 20:18:19;;;;;;;0.28;0.17;;;;;;;20.91;72.19;101654.88;10441547;28;20048;-77
2022/08/12 20:23:41;;;;;;;0.20;0.20;;;;;;;20.88;70.53;101652.28;10447274;28;20044;-77
2022/08/12 20:29:05;;;;;;;0.00;0.00;;;;;;;20.88;69.30;101656.63;10454673;28;20053;-76
2022/08/12 20:34:06;;;;;;;0.55;0.35;;;;;;;20.58;71.13;101651.53;10455441;28;20037;-76
2022/08/12 20:39:13;;;;;;;0.17;0.17;;;;;;;20.19;74.26;101658.59;10453545;28;20057;-77
2022/08/12 20:44:37;;;;;;;0.55;0.30;;;;;;;19.96;78.40;101667.34;10453877;28;20067;-76
2022/08/12 20:49:42;;;;;;;0.10;0.10;;;;;;;19.51;88.21;101656.00;10437248;28;20041;-76
2022/08/12 20:54:49;;;;;;;0.10;0.10;;;;;;;19.50;86.38;101662.09;10452414;28;20052;-77
2022/08/12 20:59:51;;;;;;;0.00;0.00;;;;;;;19.10;89.95;101662.03;10451176;28;20048;-76
2022/08/12 21:10:20;;;;;;;0.00;0.00;;;;;;;18.86;95.59;101658.44;10452179;28;20391;-76
2022/08/12 21:15:27;;;;;;;0.20;0.10;;;;;;;18.70;89.80;101655.78;10452456;28;20049;-76
2022/08/12 21:20:51;;;;;;;0.20;0.10;;;;;;;18.45;93.69;101656.50;10451296;28;20488;-76
2022/08/12 21:25:54;;;;;;;0.20;0.20;;;;;;;18.34;94.10;101649.53;10450833;28;20045;-76
2022/08/12 21:30:59;;;;;;;0.30;0.10;;;;;;;18.32;91.15;101653.84;10450724;28;20567;-76
2022/08/12 21:36:22;;;;;;;0.00;0.00;;;;;;;18.28;94.55;101651.22;10446309;28;20049;-76
2022/08/12 21:41:36;;;;;;;0.00;0.00;;;;;;;18.20;91.85;101653.78;10451236;28;20038;-76
2022/08/12 21:46:48;;;;;;;0.00;0.00;;;;;;;18.01;89.95;101658.00;10467289;28;20049;-76
2022/08/12 21:51:55;;;;;;;0.00;0.00;;;;;;;17.89;100.00;101656.16;10444906;28;20043;-76
2022/08/12 21:56:57;;;;;;;0.28;0.20;;;;;;;17.59;100.00;101657.63;10449797;28;20044;-74
2022/08/12 22:01:59;;;;;;;0.17;0.17;;;;;;;17.58;100.00;101661.09;10445567;28;20045;-77
2022/08/12 22:07:01;;;;;;;0.10;0.10;;;;;;;17.39;100.00;101660.91;10450638;28;20040;-76
2022/08/12 22:17:32;;;;;;;0.47;0.32;;;;;;;17.31;100.00;101662.59;10472789;28;20400;-76
2022/08/12 22:22:50;;;;;;;0.10;0.10;;;;;;;17.01;100.00;101669.22;10460678;28;20036;-77
2022/08/12 22:33:25;;;;;;;0.22;0.22;;;;;;;16.93;100.00;101676.06;10455378;28;20407;-76
2022/08/12 22:38:28;;;;;;;1.45;0.40;;;;;;;16.62;100.00;101675.66;10456639;28;20445;-76
2022/08/12 22:49:02;;;;;;;0.40;0.10;;;;;;;16.29;100.00;101682.09;10456551;28;20063;-75
2022/08/12 22:54:09;;;;;;;0.77;0.38;;;;;;;16.22;100.00;101675.06;10456774;28;20041;-76
2022/08/12 22:59:32;;;;;;;0.43;0.43;;;;;;;16.26;100.00;101674.28;10458922;28;20045;-76
2022/08/12 23:04:53;;;;;;;0.25;0.25;;;;;;;16.26;100.00;101671.69;10458076;28;20075;-76
2022/08/12 23:09:56;;;;;;;0.47;0.13;;;;;;;16.17;100.00;101680.19;10454302;28;20369;-76
2022/08/12 23:14:57;;;;;;;0.10;0.10;;;;;;;16.09;100.00;101672.28;10455359;28;20041;-76
2022/08/12 23:20:00;;;;;;;0.30;0.20;;;;;;;16.04;100.00;101681.75;10454459;28;20124;-76
2022/08/12 23:25:02;;;;;;;0.10;0.10;;;;;;;16.05;100.00;101678.28;10454853;28;20772;-76
2022/08/12 23:30:05;;;;;;;0.10;0.10;;;;;;;15.80;100.00;101682.19;10454403;28;20518;-76
2022/08/12 23:35:20;;;;;;;0.20;0.15;;;;;;;15.71;100.00;101688.09;10438787;28;20056;-76
2022/08/12 23:40:24;;;;;;;0.13;0.13;;;;;;;15.79;100.00;101686.50;10446132;28;20461;-76
2022/08/12 23:45:26;;;;;;;0.10;0.05;;;;;;;15.79;100.00;101683.91;10452510;28;20052;-76
2022/08/12 23:50:41;;;;;;;0.17;0.10;;;;;;;15.83;100.00;101683.13;10452082;28;20037;-76
2022/08/12 23:55:48;;;;;;;1.00;0.30;;;;;;;15.82;100.00;101678.75;10435792;28;20064;-76
